sensor_id;sensor_type;location;lat;lon;timestamp;P1;durP1;ratioP1;P2;durP2;ratioP2
46701;SDS011;33449;50.712;7.124;2023-01-01T06:58:10;6.93;;;1.90;;
46701;SDS011;33449;50.712;7.124;2023-01-01T07:03:42;10.90;;;2.92;;
46701;SDS011;33449;50.712;7.124;2023-01-01T08:18:25;4.63;;;1.75;;
46701;SDS011;33449;50.712;7.124;2023-01-01T08:21:26;5.53;;;1.63;;
46701;SDS011;33449;50.712;7.124;2023-01-01T08:29:37;5.30;;;1.70;;
46701;SDS011;33449;50.712;7.124;2023-01-01T08:32:17;5.25;;;2.33;;
46701;SDS011;33449;50.712;7.124;2023-01-01T09:16:16;3.15;;;1.73;;
46701;SDS011;33449;50.712;7.124;2023-01-01T09:19:19;12.63;;;2.38;;
46701;SDS011;33449;50.712;7.124;2023-01-01T09:22:00;7.72;;;1.85;;
46701;SDS011;33449;50.712;7.124;2023-01-01T09:24:42;7.35;;;1.70;;
46701;SDS011;33449;50.712;7.124;2023-01-01T09:38:24;5.47;;;1.63;;
46701;SDS011;33449;50.712;7.124;2023-01-01T09:41:17;5.10;;;1.50;;
46701;SDS011;33449;50.712;7.124;2023-01-01T16:53:40;11.27;;;4.00;;
46701;SDS011;33449;50.712;7.124;2023-01-01T17:12:44;6.32;;;2.83;;
46701;SDS011;33449;50.712;7.124;2023-01-01T17:18:35;8.52;;;3.35;;
46701;SDS011;33449;50.712;7.124;2023-01-01T19:33:50;13.23;;;4.50;;
46701;SDS011;33449;50.712;7.124;2023-01-01T19:36:17;12.70;;;4.30;;
46701;SDS011;33449;50.712;7.124;2023-01-01T19:38:44;12.98;;;4.43;;
46701;SDS011;33449;50.712;7.124;2023-01-01T19:41:10;16.00;;;4.82;;
46701;SDS011;33449;50.712;7.124;2023-01-01T19:43:37;15.48;;;3.95;;
46701;SDS011;33449;50.712;7.124;2023-01-01T19:46:04;15.85;;;4.15;;
46701;SDS011;33449;50.712;7.124;2023-01-01T19:51:06;9.15;;;4.85;;
46701;SDS011;33449;50.712;7.124;2023-01-01T19:53:33;12.60;;;4.95;;
46701;SDS011;33449;50.712;7.124;2023-01-01T19:55:59;14.13;;;4.35;;
46701;SDS011;33449;50.712;7.124;2023-01-01T19:58:26;10.95;;;4.70;;
46701;SDS011;33449;50.712;7.124;2023-01-01T20:00:54;23.50;;;4.55;;
46701;SDS011;33449;50.712;7.124;2023-01-01T20:08:58;13.10;;;4.53;;
46701;SDS011;33449;50.712;7.124;2023-01-01T20:11:25;12.80;;;4.35;;
46701;SDS011;33449;50.712;7.124;2023-01-01T20:13:54;8.27;;;3.63;;
46701;SDS011;33449;50.712;7.124;2023-01-01T20:16:21;10.95;;;3.35;;
46701;SDS011;33449;50.712;7.124;2023-01-01T20:18:48;10.60;;;4.03;;
46701;SDS011;33449;50.712;7.124;2023-01-01T20:32:04;10.82;;;4.60;;
46701;SDS011;33449;50.712;7.124;2023-01-01T20:34:31;8.68;;;4.22;;
46701;SDS011;33449;50.712;7.124;2023-01-01T20:36:59;15.25;;;4.28;;
46701;SDS011;33449;50.712;7.124;2023-01-01T20:39:45;11.32;;;4.25;;
46701;SDS011;33449;50.712;7.124;2023-01-01T20:44:50;17.35;;;5.78;;
46701;SDS011;33449;50.712;7.124;2023-01-01T20:47:18;10.57;;;4.10;;
46701;SDS011;33449;50.712;7.124;2023-01-01T20:49:45;13.32;;;4.63;;
46701;SDS011;33449;50.712;7.124;2023-01-01T20:54:39;10.18;;;2.70;;
46701;SDS011;33449;50.712;7.124;2023-01-01T21:05:01;4.15;;;2.00;;
46701;SDS011;33449;50.712;7.124;2023-01-01T21:07:29;5.82;;;2.95;;
46701;SDS011;33449;50.712;7.124;2023-01-01T21:09:56;7.13;;;3.00;;
46701;SDS011;33449;50.712;7.124;2023-01-01T21:14:57;7.45;;;3.15;;
46701;SDS011;33449;50.712;7.124;2023-01-01T21:20:13;8.57;;;3.07;;
46701;SDS011;33449;50.712;7.124;2023-01-01T21:22:40;10.50;;;3.97;;
46701;SDS011;33449;50.712;7.124;2023-01-01T21:25:40;13.07;;;3.85;;
46701;SDS011;33449;50.712;7.124;2023-01-01T21:28:19;9.60;;;3.58;;
46701;SDS011;33449;50.712;7.124;2023-01-01T21:30:50;5.10;;;3.00;;
46701;SDS011;33449;50.712;7.124;2023-01-01T21:44:04;13.52;;;3.50;;
46701;SDS011;33449;50.712;7.124;2023-01-01T21:46:37;15.23;;;3.50;;
46701;SDS011;33449;50.712;7.124;2023-01-01T21:49:13;7.50;;;2.83;;
46701;SDS011;33449;50.712;7.124;2023-01-01T21:51:46;5.05;;;2.22;;
46701;SDS011;33449;50.712;7.124;2023-01-01T21:54:25;19.13;;;4.45;;
46701;SDS011;33449;50.712;7.124;2023-01-01T21:57:22;9.18;;;3.28;;
46701;SDS011;33449;50.712;7.124;2023-01-01T21:59:49;15.35;;;3.88;;
46701;SDS011;33449;50.712;7.124;2023-01-01T22:02:26;4.53;;;2.15;;
46701;SDS011;33449;50.712;7.124;2023-01-01T22:04:57;8.50;;;3.00;;
46701;SDS011;33449;50.712;7.124;2023-01-01T22:07:26;12.13;;;3.90;;
46701;SDS011;33449;50.712;7.124;2023-01-01T22:10:15;8.77;;;2.45;;
46701;SDS011;33449;50.712;7.124;2023-01-01T22:12:45;10.55;;;3.17;;
46701;SDS011;33449;50.712;7.124;2023-01-01T22:15:41;11.77;;;2.67;;
46701;SDS011;33449;50.712;7.124;2023-01-01T22:18:22;14.10;;;3.58;;
46701;SDS011;33449;50.712;7.124;2023-01-01T22:20:52;9.80;;;2.70;;
46701;SDS011;33449;50.712;7.124;2023-01-01T22:23:26;11.23;;;3.35;;
46701;SDS011;33449;50.712;7.124;2023-01-01T22:25:59;13.88;;;2.88;;
46701;SDS011;33449;50.712;7.124;2023-01-01T22:28:32;9.18;;;3.03;;
46701;SDS011;33449;50.712;7.124;2023-01-01T22:31:03;10.48;;;3.05;;
46701;SDS011;33449;50.712;7.124;2023-01-01T22:33:38;11.55;;;3.47;;
46701;SDS011;33449;50.712;7.124;2023-01-01T22:41:33;9.30;;;4.07;;
46701;SDS011;33449;50.712;7.124;2023-01-01T22:44:00;9.70;;;2.97;;
46701;SDS011;33449;50.712;7.124;2023-01-01T22:46:33;10.35;;;3.40;;
46701;SDS011;33449;50.712;7.124;2023-01-01T22:49:04;8.20;;;2.63;;
46701;SDS011;33449;50.712;7.124;2023-01-01T22:51:39;11.45;;;3.45;;
46701;SDS011;33449;50.712;7.124;2023-01-01T22:54:07;8.65;;;3.17;;
46701;SDS011;33449;50.712;7.124;2023-01-01T22:56:34;10.95;;;3.55;;
46701;SDS011;33449;50.712;7.124;2023-01-01T22:59:01;5.40;;;3.00;;
46701;SDS011;33449;50.712;7.124;2023-01-01T23:01:28;9.93;;;2.30;;
46701;SDS011;33449;50.712;7.124;2023-01-01T23:03:56;13.02;;;2.90;;
46701;SDS011;33449;50.712;7.124;2023-01-01T23:06:22;9.43;;;2.92;;
46701;SDS011;33449;50.712;7.124;2023-01-01T23:11:23;9.27;;;2.92;;
46701;SDS011;33449;50.712;7.124;2023-01-01T23:13:50;8.77;;;3.60;;
46701;SDS011;33449;50.712;7.124;2023-01-01T23:16:36;7.03;;;2.17;;
46701;SDS011;33449;50.712;7.124;2023-01-01T23:19:03;7.80;;;2.65;;
46701;SDS011;33449;50.712;7.124;2023-01-01T23:21:30;8.57;;;2.83;;
46701;SDS011;33449;50.712;7.124;2023-01-01T23:23:58;6.82;;;2.92;;
